createdAt,value
2023-01-25T00:01:36.920Z,15.77
2023-01-25T00:04:04.637Z,15.57
2023-01-25T00:06:32.106Z,16.20
2023-01-25T00:08:59.527Z,17.63
2023-01-25T00:11:27.124Z,16.57
2023-01-25T00:13:55.192Z,16.33
2023-01-25T00:16:23.205Z,15.77
2023-01-25T00:18:50.874Z,16.17
2023-01-25T00:21:21.708Z,15.57
2023-01-25T00:23:49.739Z,16.13
2023-01-25T00:26:18.306Z,15.53
2023-01-25T00:28:53.353Z,16.40
2023-01-25T00:31:52.437Z,15.03
2023-01-25T00:34:26.197Z,14.13
2023-01-25T00:36:57.604Z,13.83
2023-01-25T00:39:27.364Z,14.63
2023-01-25T00:41:55.384Z,14.70
2023-01-25T00:44:22.904Z,13.83
2023-01-25T00:46:50.535Z,15.17
2023-01-25T00:49:27.155Z,16.33
2023-01-25T00:51:58.230Z,15.73
2023-01-25T00:54:26.239Z,16.63
2023-01-25T00:56:55.187Z,15.60
2023-01-25T00:59:24.272Z,15.17
2023-01-25T01:01:53.953Z,15.73
2023-01-25T01:04:25.078Z,15.33
2023-01-25T01:06:53.932Z,15.43
2023-01-25T01:09:23.118Z,15.93
2023-01-25T01:11:52.955Z,16.70
2023-01-25T01:14:22.056Z,15.67
2023-01-25T01:16:49.534Z,15.70
2023-01-25T01:19:17.486Z,15.23
2023-01-25T01:21:44.744Z,17.07
2023-01-25T01:24:12.250Z,15.57
2023-01-25T01:26:39.595Z,15.27
2023-01-25T01:29:07.297Z,15.23
2023-01-25T01:31:34.787Z,15.83
2023-01-25T01:34:15.026Z,15.33
2023-01-25T01:36:42.822Z,16.03
2023-01-25T01:39:11.025Z,15.70
2023-01-25T01:41:39.143Z,15.50
2023-01-25T01:44:17.252Z,16.17
2023-01-25T01:46:53.816Z,16.07
2023-01-25T01:49:29.032Z,16.40
2023-01-25T01:52:13.159Z,15.67
2023-01-25T01:54:47.640Z,16.50
2023-01-25T01:57:18.265Z,15.37
2023-01-25T02:00:10.126Z,15.43
2023-01-25T02:02:45.958Z,16.40
2023-01-25T02:05:19.796Z,16.03
2023-01-25T02:07:49.877Z,15.67
2023-01-25T02:10:21.414Z,16.17
2023-01-25T02:12:50.960Z,15.70
2023-01-25T02:15:18.484Z,15.93
2023-01-25T02:17:47.468Z,16.07
2023-01-25T02:20:37.704Z,16.00
2023-01-25T02:23:27.685Z,15.63
2023-01-25T02:26:01.580Z,16.33
2023-01-25T02:29:08.351Z,15.53
2023-01-25T02:31:37.263Z,16.37
2023-01-25T02:34:04.835Z,15.70
2023-01-25T02:36:34.512Z,16.43
2023-01-25T02:39:10.100Z,15.57
2023-01-25T02:41:42.897Z,16.57
2023-01-25T02:44:27.763Z,15.07
2023-01-25T02:46:55.370Z,16.00
2023-01-25T02:49:24.288Z,15.63
2023-01-25T02:51:57.835Z,16.63
2023-01-25T02:54:27.049Z,15.57
2023-01-25T02:56:55.907Z,16.00
2023-01-25T02:59:25.783Z,15.27
2023-01-25T03:01:58.284Z,14.80
2023-01-25T03:04:26.107Z,15.73
2023-01-25T03:06:54.890Z,15.03
2023-01-25T03:09:22.372Z,15.87
2023-01-25T03:11:51.083Z,15.73
2023-01-25T03:14:21.068Z,15.97
2023-01-25T03:16:48.748Z,15.37
2023-01-25T03:19:20.370Z,16.10
2023-01-25T03:21:48.405Z,15.83
2023-01-25T03:24:15.799Z,14.77
2023-01-25T03:27:05.397Z,15.27
2023-01-25T03:29:38.480Z,16.17
2023-01-25T03:32:12.090Z,15.57
2023-01-25T03:34:39.751Z,15.23
2023-01-25T03:37:07.451Z,15.83
2023-01-25T03:39:36.295Z,15.10
2023-01-25T03:42:03.803Z,15.50
2023-01-25T03:44:32.371Z,15.70
2023-01-25T03:47:00.154Z,15.83
2023-01-25T03:49:29.969Z,15.47
2023-01-25T03:51:58.668Z,14.90
2023-01-25T03:54:34.751Z,15.33
2023-01-25T03:57:02.762Z,15.50
2023-01-25T03:59:33.209Z,16.40
2023-01-25T04:02:00.962Z,15.23
2023-01-25T04:04:28.357Z,15.03
2023-01-25T04:06:57.332Z,14.80
2023-01-25T04:09:26.009Z,15.07
2023-01-25T04:11:56.681Z,15.37
2023-01-25T04:14:42.519Z,15.27
2023-01-25T04:17:11.817Z,16.63
2023-01-25T04:19:43.400Z,13.13
2023-01-25T04:22:14.670Z,13.93
2023-01-25T04:24:42.429Z,14.90
2023-01-25T04:27:10.806Z,14.67
2023-01-25T04:29:54.865Z,14.83
2023-01-25T04:32:26.096Z,14.60
2023-01-25T04:34:54.489Z,15.00
2023-01-25T04:37:24.533Z,15.47
2023-01-25T04:39:56.551Z,15.30
2023-01-25T04:42:24.370Z,15.43
2023-01-25T04:44:55.450Z,16.17
2023-01-25T04:47:24.000Z,16.10
2023-01-25T04:49:51.416Z,16.47
2023-01-25T04:52:23.034Z,16.00
2023-01-25T04:54:50.471Z,16.60
2023-01-25T04:57:18.223Z,16.20
2023-01-25T04:59:50.395Z,15.80
2023-01-25T05:02:18.102Z,16.90
2023-01-25T05:04:45.734Z,16.40
2023-01-25T05:07:13.153Z,17.37
2023-01-25T05:09:40.906Z,16.03
2023-01-25T05:12:11.966Z,18.20
2023-01-25T05:14:59.497Z,16.30
2023-01-25T05:17:27.233Z,15.23
2023-01-25T05:19:54.625Z,16.03
2023-01-25T05:22:23.900Z,15.40
2023-01-25T05:24:54.673Z,15.90
2023-01-25T05:27:23.284Z,15.67
2023-01-25T05:29:53.713Z,15.70
2023-01-25T05:32:25.235Z,15.77
2023-01-25T05:34:53.063Z,15.77
2023-01-25T05:37:22.076Z,16.17
2023-01-25T05:39:56.648Z,15.90
2023-01-25T05:42:25.988Z,15.37
2023-01-25T05:44:54.673Z,16.13
2023-01-25T05:47:22.172Z,15.20
2023-01-25T05:49:49.582Z,15.17
2023-01-25T05:52:34.966Z,15.03
2023-01-25T05:55:02.637Z,14.23
2023-01-25T05:57:30.326Z,14.77
2023-01-25T06:00:01.579Z,14.03
2023-01-25T06:02:29.901Z,15.50
2023-01-25T06:04:57.954Z,15.53
2023-01-25T06:07:25.805Z,14.13
2023-01-25T06:09:53.113Z,13.00
2023-01-25T06:12:22.405Z,14.47
2023-01-25T06:14:50.332Z,13.90
2023-01-25T06:17:17.952Z,13.50
2023-01-25T06:19:58.257Z,13.10
2023-01-25T06:22:38.554Z,12.33
2023-01-25T06:25:06.325Z,13.20
2023-01-25T06:27:33.798Z,16.10
2023-01-25T06:30:01.226Z,17.23
2023-01-25T06:32:33.270Z,12.97
2023-01-25T06:35:00.655Z,12.77
2023-01-25T06:37:28.199Z,12.67
2023-01-25T06:39:55.537Z,11.60
2023-01-25T06:42:25.045Z,12.00
2023-01-25T06:44:52.498Z,13.30
2023-01-25T06:47:19.764Z,12.63
2023-01-25T06:49:47.006Z,12.40
2023-01-25T06:52:14.282Z,12.80
2023-01-25T06:54:41.703Z,12.47
2023-01-25T06:57:10.709Z,11.80
2023-01-25T06:59:38.151Z,12.20
2023-01-25T07:02:06.285Z,11.87
2023-01-25T07:04:33.600Z,12.23
2023-01-25T07:07:00.871Z,13.33
2023-01-25T07:09:28.365Z,12.80
2023-01-25T07:11:55.631Z,12.63
2023-01-25T07:14:23.080Z,15.43
2023-01-25T07:16:50.682Z,17.40
2023-01-25T07:19:18.185Z,18.90
2023-01-25T07:21:46.844Z,18.60
2023-01-25T07:24:17.115Z,18.90
2023-01-25T07:26:45.195Z,17.27
2023-01-25T07:29:15.474Z,18.47
2023-01-25T07:31:43.022Z,18.60
2023-01-25T07:34:13.191Z,17.87
2023-01-25T07:36:41.232Z,18.27
2023-01-25T07:39:10.436Z,19.17
2023-01-25T07:41:38.553Z,18.30
2023-01-25T07:44:06.669Z,18.00
2023-01-25T07:46:55.304Z,16.97
2023-01-25T07:49:22.769Z,17.40
2023-01-25T07:51:50.073Z,15.30
2023-01-25T07:54:17.511Z,16.13
2023-01-25T07:56:44.965Z,16.23
2023-01-25T07:59:12.526Z,15.77
2023-01-25T08:01:40.447Z,14.40
2023-01-25T08:04:08.276Z,15.07
2023-01-25T08:06:39.122Z,15.07
2023-01-25T08:09:12.762Z,14.53
2023-01-25T08:11:42.500Z,14.57
2023-01-25T08:14:11.708Z,14.60
2023-01-25T08:16:39.083Z,13.80
2023-01-25T08:19:06.599Z,13.10
2023-01-25T08:21:35.029Z,13.80
2023-01-25T08:24:05.954Z,13.67
2023-01-25T08:26:35.248Z,13.67
2023-01-25T08:29:03.901Z,15.07
2023-01-25T08:31:33.992Z,13.17
2023-01-25T08:34:02.317Z,11.90
2023-01-25T08:36:30.039Z,12.20
2023-01-25T08:39:00.319Z,12.53
2023-01-25T08:41:29.572Z,13.00
2023-01-25T08:43:58.106Z,16.53
2023-01-25T08:46:30.290Z,15.57
2023-01-25T08:49:01.163Z,14.90
2023-01-25T08:51:31.806Z,18.97
2023-01-25T08:54:07.724Z,13.60
2023-01-25T08:56:38.563Z,12.80
2023-01-25T08:59:06.942Z,12.47
2023-01-25T09:01:34.346Z,11.80
2023-01-25T09:04:01.875Z,12.10
2023-01-25T09:06:30.955Z,12.00
2023-01-25T09:09:00.294Z,10.93
2023-01-25T09:11:27.759Z,11.30
2023-01-25T09:13:55.084Z,11.10
2023-01-25T09:16:30.738Z,11.60
2023-01-25T09:19:02.398Z,10.73
2023-01-25T09:21:30.516Z,10.47
2023-01-25T09:24:07.214Z,11.13
2023-01-25T09:26:37.577Z,11.43
2023-01-25T09:29:05.566Z,11.20
2023-01-25T09:31:33.535Z,11.33
2023-01-25T09:34:11.609Z,11.07
2023-01-25T09:36:39.870Z,11.67
2023-01-25T09:39:07.411Z,11.10
2023-01-25T09:41:37.571Z,11.40
2023-01-25T09:44:23.386Z,11.20
2023-01-25T09:46:54.160Z,10.87
2023-01-25T09:49:51.248Z,11.13
2023-01-25T09:52:27.298Z,12.23
2023-01-25T09:54:55.040Z,11.77
2023-01-25T09:57:25.831Z,12.73
2023-01-25T09:59:54.596Z,12.27
2023-01-25T10:02:38.898Z,11.40
2023-01-25T10:05:21.457Z,10.47
2023-01-25T10:08:06.019Z,11.53
2023-01-25T10:10:38.073Z,11.37
2023-01-25T10:13:13.390Z,11.87
2023-01-25T10:15:55.742Z,12.70
2023-01-25T10:18:39.357Z,12.43
2023-01-25T10:21:28.542Z,12.27
2023-01-25T10:24:32.626Z,11.73
2023-01-25T10:27:14.520Z,11.70
2023-01-25T10:29:41.948Z,12.63
2023-01-25T10:32:27.555Z,12.90
2023-01-25T10:35:01.405Z,12.20
2023-01-25T10:37:32.556Z,12.00
2023-01-25T10:40:04.604Z,12.67
2023-01-25T10:42:38.317Z,12.33
2023-01-25T10:45:13.177Z,12.47
2023-01-25T10:47:50.708Z,12.63
2023-01-25T10:50:46.618Z,13.00
2023-01-25T10:53:24.548Z,13.00
2023-01-25T10:56:19.360Z,13.20
2023-01-25T10:58:49.368Z,13.27
2023-01-25T11:01:30.094Z,13.77
2023-01-25T11:03:58.099Z,15.60
2023-01-25T11:06:50.666Z,14.63
2023-01-25T11:09:21.322Z,13.80
2023-01-25T11:12:05.045Z,15.57
2023-01-25T11:14:33.877Z,16.40
2023-01-25T11:17:04.087Z,17.73
2023-01-25T11:19:38.595Z,16.60
2023-01-25T11:22:19.357Z,16.97
2023-01-25T11:24:47.115Z,17.27
2023-01-25T11:27:25.549Z,15.13
2023-01-25T11:30:16.012Z,16.47
2023-01-25T11:32:43.402Z,17.13
2023-01-25T11:35:31.250Z,17.03
2023-01-25T11:38:19.700Z,16.70
2023-01-25T11:41:01.958Z,16.20
2023-01-25T11:44:04.914Z,15.30
2023-01-25T11:46:35.419Z,14.83
2023-01-25T11:49:17.366Z,16.23
2023-01-25T11:52:03.095Z,14.57
2023-01-25T11:54:36.390Z,15.93
2023-01-25T11:57:17.508Z,18.93
2023-01-25T12:00:17.754Z,18.53
2023-01-25T12:02:50.930Z,15.90
2023-01-25T12:05:33.938Z,15.67
2023-01-25T12:08:01.331Z,15.73
2023-01-25T12:10:47.415Z,18.20
2023-01-25T12:13:41.926Z,18.53
2023-01-25T12:16:21.579Z,18.40
2023-01-25T12:19:09.659Z,26.90
2023-01-25T12:21:52.372Z,17.57
2023-01-25T12:24:46.192Z,18.53
2023-01-25T12:27:28.867Z,18.80
2023-01-25T12:30:55.237Z,20.07
2023-01-25T12:33:32.649Z,18.40
2023-01-25T12:36:06.532Z,18.33
2023-01-25T12:38:57.455Z,17.20
2023-01-25T12:41:45.260Z,18.87
2023-01-25T12:44:25.299Z,16.93
2023-01-25T12:47:12.431Z,16.13
2023-01-25T12:49:59.463Z,16.80
2023-01-25T12:52:32.123Z,17.27
2023-01-25T12:55:13.038Z,17.23
2023-01-25T12:58:06.802Z,15.30
2023-01-25T13:00:53.232Z,16.20
2023-01-25T13:03:51.514Z,13.93
2023-01-25T13:06:41.320Z,15.03
2023-01-25T13:09:15.027Z,15.17
2023-01-25T13:11:45.176Z,14.07
2023-01-25T13:14:23.538Z,13.50
2023-01-25T13:17:08.525Z,14.07
2023-01-25T13:19:37.269Z,13.03
2023-01-25T13:22:05.341Z,12.90
2023-01-25T13:24:34.993Z,14.67
2023-01-25T13:27:05.562Z,14.47
2023-01-25T13:29:35.646Z,15.63
2023-01-25T13:32:05.298Z,14.67
2023-01-25T13:34:35.821Z,13.70
2023-01-25T13:37:24.571Z,15.00
2023-01-25T13:40:08.323Z,14.57
2023-01-25T13:42:39.153Z,14.67
2023-01-25T13:45:21.560Z,15.43
2023-01-25T13:48:19.025Z,15.33
2023-01-25T13:50:51.252Z,14.13
2023-01-25T13:53:21.890Z,14.70
2023-01-25T13:55:51.105Z,15.07
2023-01-25T13:58:24.386Z,14.80
2023-01-25T14:00:56.203Z,17.13
2023-01-25T14:03:41.873Z,18.07
2023-01-25T14:06:27.821Z,18.53
2023-01-25T14:08:58.314Z,17.03
2023-01-25T14:11:28.912Z,15.23
2023-01-25T14:14:02.621Z,15.30
2023-01-25T14:16:31.942Z,13.63
2023-01-25T14:19:23.365Z,19.03
2023-01-25T14:22:09.830Z,18.47
2023-01-25T14:24:37.246Z,19.90
2023-01-25T14:27:05.545Z,18.60
2023-01-25T14:29:35.353Z,17.33
2023-01-25T14:32:03.088Z,15.20
2023-01-25T14:34:30.561Z,17.43
2023-01-25T14:37:18.028Z,16.60
2023-01-25T14:39:46.576Z,16.90
2023-01-25T14:42:17.935Z,17.73
2023-01-25T14:44:45.788Z,18.27
2023-01-25T14:47:31.766Z,20.00
2023-01-25T14:50:38.213Z,19.97
2023-01-25T14:53:20.728Z,19.10
2023-01-25T14:55:49.797Z,18.30
2023-01-25T14:58:21.710Z,18.17
2023-01-25T15:00:53.309Z,17.93
2023-01-25T15:03:22.832Z,18.03
2023-01-25T15:05:50.236Z,18.33
2023-01-25T15:08:29.747Z,18.47
2023-01-25T15:11:19.034Z,20.00
2023-01-25T15:13:46.954Z,19.10
2023-01-25T15:16:16.463Z,17.80
2023-01-25T15:18:44.908Z,17.50
2023-01-25T15:21:15.069Z,17.23
2023-01-25T15:23:44.914Z,18.20
2023-01-25T15:26:14.723Z,18.23
2023-01-25T15:28:42.308Z,16.73
2023-01-25T15:31:21.153Z,16.60
2023-01-25T15:33:48.581Z,15.93
2023-01-25T15:36:17.702Z,16.80
2023-01-25T15:38:46.071Z,16.17
2023-01-25T15:41:14.413Z,16.33
2023-01-25T15:43:42.096Z,17.10
2023-01-25T15:46:20.991Z,17.40
2023-01-25T15:48:50.286Z,16.43
2023-01-25T15:51:18.260Z,16.37
2023-01-25T15:53:46.887Z,15.77
2023-01-25T15:56:17.957Z,17.17
2023-01-25T15:58:52.928Z,20.33
2023-01-25T16:01:27.045Z,20.67
2023-01-25T16:03:59.263Z,19.30
2023-01-25T16:06:50.225Z,19.93
2023-01-25T16:09:27.177Z,21.17
2023-01-25T16:11:56.512Z,20.70
2023-01-25T16:14:29.043Z,20.93
2023-01-25T16:16:59.654Z,19.87
2023-01-25T16:19:26.996Z,18.03
2023-01-25T16:21:54.282Z,20.33
2023-01-25T16:24:21.698Z,20.43
2023-01-25T16:26:54.789Z,20.60
2023-01-25T16:29:24.911Z,19.97
2023-01-25T16:31:53.669Z,19.03
2023-01-25T16:34:22.267Z,17.70
2023-01-25T16:36:50.820Z,17.90
2023-01-25T16:39:21.081Z,19.13
2023-01-25T16:41:49.587Z,19.03
2023-01-25T16:44:17.398Z,19.23
2023-01-25T16:46:45.164Z,20.53
2023-01-25T16:49:26.405Z,18.23
2023-01-25T16:51:54.994Z,17.00
2023-01-25T16:54:23.612Z,16.30
2023-01-25T16:56:52.324Z,18.20
2023-01-25T16:59:21.816Z,18.87
2023-01-25T17:01:49.370Z,17.87
2023-01-25T17:04:17.038Z,17.63
2023-01-25T17:06:47.550Z,19.33
2023-01-25T17:09:24.154Z,20.63
2023-01-25T17:11:52.891Z,19.73
2023-01-25T17:14:21.365Z,18.07
2023-01-25T17:16:51.461Z,19.17
2023-01-25T17:19:20.215Z,18.23
2023-01-25T17:21:48.041Z,18.67
2023-01-25T17:24:17.516Z,19.23
2023-01-25T17:26:44.966Z,16.53
2023-01-25T17:29:14.119Z,16.70
2023-01-25T17:31:42.386Z,16.83
2023-01-25T17:34:15.985Z,16.03
2023-01-25T17:36:44.528Z,16.50
2023-01-25T17:39:15.388Z,19.50
2023-01-25T17:41:43.760Z,19.00
2023-01-25T17:44:12.255Z,17.63
2023-01-25T17:46:40.124Z,18.17
2023-01-25T17:49:11.219Z,18.80
2023-01-25T17:51:38.684Z,17.77
2023-01-25T17:54:06.593Z,17.53
2023-01-25T17:56:34.289Z,17.57
2023-01-25T17:59:02.351Z,19.47
2023-01-25T18:01:32.115Z,19.57
2023-01-25T18:04:00.827Z,18.67
2023-01-25T18:06:30.523Z,19.63
2023-01-25T18:09:00.753Z,20.77
2023-01-25T18:11:31.138Z,20.20
2023-01-25T18:14:04.904Z,19.13
2023-01-25T18:16:32.972Z,19.77
2023-01-25T18:19:01.587Z,19.20
2023-01-25T18:21:32.223Z,18.63
2023-01-25T18:24:04.260Z,18.57
2023-01-25T18:26:35.461Z,19.27
2023-01-25T18:29:09.907Z,16.90
2023-01-25T18:31:37.954Z,64.77
2023-01-25T18:34:05.451Z,24.50
2023-01-25T18:36:33.122Z,18.07
2023-01-25T18:39:01.454Z,18.23
2023-01-25T18:41:28.706Z,20.77
2023-01-25T18:43:56.857Z,22.97
2023-01-25T18:46:24.319Z,19.87
2023-01-25T18:48:52.463Z,20.07
2023-01-25T18:51:19.860Z,21.77
2023-01-25T18:53:47.823Z,18.60
2023-01-25T18:56:17.868Z,16.23
2023-01-25T18:58:45.770Z,18.70
2023-01-25T19:01:19.145Z,21.03
2023-01-25T19:03:47.874Z,24.37
2023-01-25T19:06:16.182Z,20.97
2023-01-25T19:08:46.578Z,19.60
2023-01-25T19:11:17.193Z,17.00
2023-01-25T19:13:44.818Z,19.93
2023-01-25T19:16:19.955Z,20.27
2023-01-25T19:18:51.863Z,22.30
2023-01-25T19:21:20.647Z,20.50
2023-01-25T19:23:48.580Z,21.07
2023-01-25T19:26:18.071Z,22.63
2023-01-25T19:28:46.912Z,30.07
2023-01-25T19:31:21.457Z,25.93
2023-01-25T19:33:53.953Z,18.23
2023-01-25T19:36:21.516Z,18.53
2023-01-25T19:38:49.864Z,19.47
2023-01-25T19:41:20.666Z,21.70
2023-01-25T19:43:52.357Z,25.40
2023-01-25T19:46:22.267Z,20.00
2023-01-25T19:48:51.172Z,17.83
2023-01-25T19:51:24.371Z,19.10
2023-01-25T19:53:59.003Z,23.57
2023-01-25T19:56:29.154Z,50.93
2023-01-25T19:58:56.576Z,22.80
2023-01-25T20:01:28.944Z,25.03
2023-01-25T20:03:57.988Z,34.47
2023-01-25T20:06:26.923Z,34.47
2023-01-25T20:08:55.379Z,28.37
2023-01-25T20:11:25.965Z,37.40
2023-01-25T20:13:58.088Z,32.27
2023-01-25T20:16:27.481Z,30.37
2023-01-25T20:18:56.953Z,32.73
2023-01-25T20:21:26.005Z,40.83
2023-01-25T20:23:58.220Z,34.73
2023-01-25T20:26:32.564Z,35.50
2023-01-25T20:29:00.958Z,31.63
2023-01-25T20:31:34.056Z,30.37
2023-01-25T20:34:07.019Z,30.50
2023-01-25T20:36:38.038Z,27.63
2023-01-25T20:39:06.857Z,25.10
2023-01-25T20:41:34.672Z,25.57
2023-01-25T20:44:10.084Z,26.37
2023-01-25T20:46:39.699Z,25.27
2023-01-25T20:49:10.662Z,25.97
2023-01-25T20:51:38.109Z,24.13
2023-01-25T20:54:05.524Z,23.10
2023-01-25T20:56:32.979Z,24.57
2023-01-25T20:59:00.749Z,33.73
2023-01-25T21:01:36.805Z,25.60
2023-01-25T21:04:06.493Z,24.80
2023-01-25T21:06:35.617Z,35.77
2023-01-25T21:09:03.704Z,29.77
2023-01-25T21:11:31.412Z,27.80
2023-01-25T21:13:59.529Z,30.37
2023-01-25T21:16:27.186Z,30.57
2023-01-25T21:18:57.640Z,34.53
2023-01-25T21:21:27.991Z,26.90
2023-01-25T21:23:59.088Z,36.27
2023-01-25T21:26:32.137Z,24.03
2023-01-25T21:29:00.929Z,25.73
2023-01-25T21:31:32.801Z,46.77
2023-01-25T21:34:01.699Z,30.87
2023-01-25T21:36:29.457Z,31.40
2023-01-25T21:38:57.259Z,27.83
2023-01-25T21:41:26.978Z,38.63
2023-01-25T21:44:14.251Z,33.83
2023-01-25T21:46:44.839Z,25.07
2023-01-25T21:49:35.535Z,23.70
2023-01-25T21:52:03.072Z,23.60
2023-01-25T21:54:35.985Z,22.87
2023-01-25T21:57:08.590Z,24.03
2023-01-25T21:59:36.971Z,22.97
2023-01-25T22:02:06.922Z,24.37
2023-01-25T22:04:36.038Z,24.23
2023-01-25T22:07:04.703Z,24.47
2023-01-25T22:09:32.241Z,27.27
2023-01-25T22:11:59.689Z,34.43
2023-01-25T22:14:26.994Z,21.73
2023-01-25T22:16:56.144Z,23.03
2023-01-25T22:19:23.555Z,31.33
2023-01-25T22:21:50.915Z,25.53
2023-01-25T22:24:18.314Z,26.03
2023-01-25T22:26:45.671Z,25.57
2023-01-25T22:29:13.523Z,25.00
2023-01-25T22:31:41.410Z,23.43
2023-01-25T22:34:08.906Z,21.97
2023-01-25T22:36:36.452Z,22.63
2023-01-25T22:39:04.394Z,22.23
2023-01-25T22:41:33.294Z,22.20
2023-01-25T22:44:00.554Z,22.40
2023-01-25T22:46:29.264Z,22.47
2023-01-25T22:48:58.490Z,22.03
2023-01-25T22:51:30.572Z,22.20
2023-01-25T22:53:59.170Z,21.07
2023-01-25T22:56:32.265Z,21.20
2023-01-25T22:59:00.484Z,21.03
2023-01-25T23:01:30.754Z,21.87
2023-01-25T23:03:58.892Z,22.30
2023-01-25T23:06:29.194Z,22.93
2023-01-25T23:08:59.979Z,21.80
2023-01-25T23:11:32.500Z,16.27
2023-01-25T23:14:18.432Z,15.87
2023-01-25T23:16:45.982Z,14.43
2023-01-25T23:19:13.848Z,16.10
2023-01-25T23:21:42.326Z,14.73
2023-01-25T23:24:10.407Z,13.97
2023-01-25T23:26:38.136Z,14.03
2023-01-25T23:29:08.165Z,15.10
2023-01-25T23:31:35.726Z,14.03
2023-01-25T23:34:05.172Z,13.03
2023-01-25T23:36:35.541Z,13.70
2023-01-25T23:39:03.395Z,14.13
2023-01-25T23:41:31.126Z,12.73
2023-01-25T23:43:59.731Z,14.13
2023-01-25T23:46:28.320Z,13.13
2023-01-25T23:48:55.865Z,13.30
2023-01-25T23:51:23.227Z,13.53
2023-01-25T23:53:50.503Z,13.87
2023-01-25T23:56:20.464Z,13.83
2023-01-25T23:58:49.023Z,14.03
